Monteview, ID

11:11 PM MDT on September 15, 2014 (GMT -0600)
Fanning | Change Station
CLOSE
Current Station
Airport
Location: Idaho Falls,
Elevation: 4741 ft
Nearby Weather Stations

Elev 4741 ft 43.51 °N, 112.07 °W | Updated 18 minutes ago

Clear
Clear
57 °F
Feels Like 57 °F
N
0
Wind Variable Wind from North

Today
High -- | Low -- °F
--% Chance of Precip.
Yesterday
High -- | Low -- °F
Precip. -- in
7:09 AM 7:40 PM
Waning Gibbous, 49% visible
Pressure 30.01 in
Visibility 10.0 miles
Clouds Clear
Dew Point 42 °F
Humidity 57%
Rainfall 0.00 in
Snow Depth Not available.
UV 0 out of 12
Pollen 6.50 out of 12
PM2.5 Good
Flu Activity Not available.
METAR KIDA 160453Z AUTO 00000KT 10SM CLR 14/06 A3010 RMK AO2 SLP162 T01390056

More Conditions Fewer Conditions

Pressure 30.01 in
Visibility 10.0 miles
Clouds Clear
Dew Point 42 °F
Humidity 57%
Rainfall 0.00 in
Snow Depth Not available.
UV 0 out of 12
Pollen 6.50 out of 12
PM2.5 Good
Flu Activity Not available.
METAR KIDA 160453Z AUTO 00000KT 10SM CLR 14/06 A3010 RMK AO2 SLP162 T01390056

More Conditions Fewer Conditions

10-Day Weather Forecast

Almanac

Astronomy

Sep. 15, 2014 Rise Set
Actual Time 7:09 AM MDT 7:40 PM MDT
Civil Twilight 6:40 AM MDT 8:09 PM MDT
Nautical Twilight 6:06 AM MDT 8:43 PM MDT
Astronomical Twilight 5:30 AM MDT 9:18 PM MDT
Moon No Moon Rise 2:24 PM MDT (9/15)
Length of Visible Light 13h 28m
Length of Day
12h 30m
Tomorrow will be 2m 58s shorter.
Waning Gibbous, 49% of the Moon is Illuminated
Sep 16
Waning Gibbous
Sep 24
New
Oct 1
First Quarter
Oct 8
Full
Oct 15
Last Quarter

Yesterday's Extremes

State Highs State Lows

Community

WunderPhotos

Upload Photos

1,753,702 photos uploaded!

Nearby

Air Quality

  Air Quality AQ Index Pollutant
Yesterday Good
PM2.5
Current Good
PM2.5
Monday Good
PM2.5
Tuesday Good
PM2.5

Snow Depth

Station Depth Elevation
Hilts Creek 0 in 8000 ft
Sheep Mountain 0 in 6570 ft
Island Park 0 in 6290 ft
Bear Canyon 0 in 7900 ft
Swede Peak 0 in 7640 ft

Earthquake Activity

City Distance Mag. Time & Date
Challis, Idaho 101 miles 3.0 12:58 PM MDT
2014-09-14
Minimum magnitude displayed is 2.5.

Coastal Water Temperatures

Place Temperature
No Stations Reporting

Nearby Weather Stations